createdAt,value
2017-10-08T06:42:03.394Z,174.38
2017-10-08T07:12:56.007Z,337.50
2017-10-08T07:19:13.899Z,253.13
2017-10-08T07:20:12.744Z,275.63
2017-10-08T07:21:12.723Z,286.88
2017-10-08T07:22:13.642Z,275.63
2017-10-08T07:23:13.724Z,303.75
2017-10-08T07:29:39.326Z,421.88
2017-10-08T07:49:38.769Z,360.00
2017-10-08T08:04:40.777Z,658.13
2017-10-08T08:05:41.181Z,613.13
2017-10-08T08:18:10.614Z,922.50
2017-10-08T08:25:11.757Z,905.63
2017-10-08T08:34:17.843Z,1147.50
2017-10-08T08:35:28.324Z,1035.00
2017-10-08T08:41:33.083Z,933.75
2017-10-08T08:42:33.500Z,900.00
2017-10-08T08:43:33.020Z,849.38
2017-10-08T08:47:51.488Z,933.75
2017-10-08T08:52:29.483Z,1125.00
2017-10-08T09:01:22.722Z,686.25
2017-10-08T09:02:15.113Z,585.00
2017-10-08T10:53:10.612Z,1012.50
2017-10-08T10:56:55.666Z,945.00
2017-10-08T10:58:18.334Z,939.38
2017-10-08T10:58:49.806Z,888.75
2017-10-08T11:01:49.170Z,1068.75
2017-10-08T11:02:47.515Z,1074.38
2017-10-08T11:03:48.590Z,1147.50
2017-10-08T11:04:47.393Z,1175.63
2017-10-08T11:05:47.211Z,1203.75
2017-10-08T11:06:47.321Z,1074.38
2017-10-08T11:07:47.798Z,776.25
2017-10-08T11:16:26.598Z,832.50
2017-10-08T11:19:35.001Z,905.63
2017-10-08T11:20:35.466Z,905.63
2017-10-08T11:21:35.761Z,888.75
2017-10-08T11:22:35.369Z,922.50
2017-10-08T11:23:35.747Z,900.00
2017-10-08T11:24:35.328Z,804.38
2017-10-08T11:25:35.306Z,675.00
2017-10-08T11:26:35.309Z,720.00
2017-10-08T11:27:37.291Z,675.00
2017-10-08T11:30:30.429Z,1271.25
2017-10-08T11:31:28.012Z,1338.75
2017-10-08T11:32:28.066Z,1220.63
2017-10-08T11:33:27.543Z,1215.00
2017-10-08T11:34:27.453Z,1653.75
2017-10-08T11:35:28.951Z,1788.75
2017-10-08T11:36:27.994Z,1805.63
2017-10-08T11:37:27.925Z,1805.63
2017-10-08T11:38:27.802Z,1642.50
2017-10-08T11:39:28.333Z,1411.88
2017-10-08T11:40:27.338Z,1170.00
2017-10-08T11:41:27.975Z,1170.00
2017-10-08T11:42:28.489Z,1113.75
2017-10-08T11:43:27.138Z,1074.38
2017-10-08T11:44:26.954Z,1102.50
2017-10-08T11:45:26.646Z,1074.38
2017-10-08T11:46:26.553Z,1046.25
2017-10-08T11:47:26.683Z,1057.50
2017-10-08T11:48:26.823Z,1113.75
2017-10-08T11:49:26.562Z,1220.63
2017-10-08T11:50:26.528Z,1321.88
2017-10-08T11:51:26.788Z,1530.00
2017-10-08T11:52:26.431Z,1091.25
2017-10-08T11:53:26.370Z,1243.13
2017-10-08T11:54:26.572Z,1338.75
2017-10-08T11:55:26.241Z,1192.50
2017-10-08T11:56:26.329Z,961.88
2017-10-08T11:57:26.242Z,984.38
2017-10-08T11:58:26.240Z,894.38
2017-10-08T11:59:26.252Z,658.13
2017-10-08T12:00:26.197Z,511.88
2017-10-08T12:01:26.149Z,466.88
2017-10-08T12:02:26.098Z,500.63
2017-10-08T12:03:26.027Z,410.63
2017-10-08T12:04:26.136Z,399.38
2017-10-08T12:05:25.939Z,444.38
2017-10-08T12:09:30.018Z,450.00
2017-10-08T12:10:26.922Z,416.25
2017-10-08T12:13:08.174Z,208.13
2017-10-08T12:14:08.184Z,185.63
